Terminal Aerodrome Forecast
Issued by NWS

Home | Current Version | Previous Version | Graphics & Text | Print | Product List | Glossary On
Versions: 1 2 3 4 5 6 7 8 9 10 11 12 13 14
760
FTUS43 KUNR 191120
TAFGCC
TAF
KGCC 191120Z 1912/2012 24014KT P6SM SCT250
     FM191600 20016G26KT P6SM SCT250=

USA.gov is the U.S. government's official web portal to all federal, state and local government web resources and services.